Time;durP1;ratioP1;P1;durP2;ratioP2;P2;SDS_P1;SDS_P2;PMS_P1;PMS_P2;Temp;Humidity;BMP_temperature;BMP_pressure;BME280_temperature;BME280_humidity;BME280_pressure;Samples;Min_cycle;Max_cycle;Signal;HPM_P1;HPM_P2
2023/04/17 00:01:16;;;;;;;69.60;29.70;;;;;;;;;;5094087;28;20028;-82
2023/04/17 00:03:41;;;;;;;68.40;29.23;;;;;;;;;;5093819;28;20024;-81
2023/04/17 00:06:07;;;;;;;68.15;29.92;;;;;;;;;;5095059;28;20385;-81
2023/04/17 00:08:33;;;;;;;69.72;30.02;;;;;;;;;;5093888;28;20037;-81
2023/04/17 00:10:58;;;;;;;74.20;30.58;;;;;;;;;;5095112;28;20058;-81
2023/04/17 00:13:23;;;;;;;72.18;30.25;;;;;;;;;;5095412;28;20028;-81
2023/04/17 00:15:49;;;;;;;71.10;30.42;;;;;;;;;;5094852;28;20031;-81
2023/04/17 00:18:14;;;;;;;75.10;30.23;;;;;;;;;;5094631;28;20054;-82
2023/04/17 00:20:40;;;;;;;86.65;33.08;;;;;;;;;;5076917;28;20024;-81
2023/04/17 00:23:06;;;;;;;77.78;33.42;;;;;;;;;;5077138;28;20024;-82
2023/04/17 00:25:31;;;;;;;81.53;33.03;;;;;;;;;;5093880;28;20441;-82
2023/04/17 00:27:57;;;;;;;87.75;33.10;;;;;;;;;;5060073;28;20028;-82
2023/04/17 00:30:22;;;;;;;80.65;33.50;;;;;;;;;;5076700;28;20503;-83
2023/04/17 00:32:47;;;;;;;81.68;35.53;;;;;;;;;;5076587;28;20400;-82
2023/04/17 00:35:13;;;;;;;86.75;33.22;;;;;;;;;;5059950;28;20040;-82
2023/04/17 00:37:39;;;;;;;86.93;35.58;;;;;;;;;;5093574;28;20036;-81
2023/04/17 00:40:05;;;;;;;81.65;33.30;;;;;;;;;;5077246;28;20064;-81
2023/04/17 00:42:30;;;;;;;82.70;35.78;;;;;;;;;;5093440;28;20052;-82
2023/04/17 00:44:56;;;;;;;83.70;34.83;;;;;;;;;;5093356;28;20473;-82
2023/04/17 00:47:21;;;;;;;87.53;34.95;;;;;;;;;;5093655;28;20118;-81
2023/04/17 00:49:48;;;;;;;90.63;37.60;;;;;;;;;;5093437;28;20028;-82
2023/04/17 00:52:15;;;;;;;96.43;35.67;;;;;;;;;;5076692;28;20112;-82
2023/04/17 00:54:40;;;;;;;82.15;35.47;;;;;;;;;;5060169;28;20063;-82
2023/04/17 00:57:06;;;;;;;86.20;35.97;;;;;;;;;;5076425;28;20027;-81
2023/04/17 00:59:31;;;;;;;94.43;36.22;;;;;;;;;;5057162;28;20028;-81
2023/04/17 01:01:57;;;;;;;89.90;36.85;;;;;;;;;;5092179;28;20055;-81
2023/04/17 01:04:22;;;;;;;90.30;36.13;;;;;;;;;;5092843;28;20040;-81
2023/04/17 01:06:47;;;;;;;86.20;35.83;;;;;;;;;;5093253;28;20020;-80
2023/04/17 01:09:13;;;;;;;87.63;37.67;;;;;;;;;;5076095;28;20063;-79
2023/04/17 01:11:39;;;;;;;87.00;36.33;;;;;;;;;;5094086;28;20110;-79
2023/04/17 01:14:04;;;;;;;87.30;35.92;;;;;;;;;;5092634;28;20110;-80
2023/04/17 01:16:30;;;;;;;85.22;36.75;;;;;;;;;;5075895;28;20120;-80
2023/04/17 01:18:55;;;;;;;88.53;36.97;;;;;;;;;;5059352;28;20032;-81
2023/04/17 01:21:21;;;;;;;90.90;38.72;;;;;;;;;;5092927;28;20024;-80
2023/04/17 01:23:53;;;;;;;101.18;39.47;;;;;;;;;;5092552;28;20362;-81
2023/04/17 01:26:20;;;;;;;93.35;39.13;;;;;;;;;;5092910;28;20115;-79
2023/04/17 01:28:57;;;;;;;100.55;37.92;;;;;;;;;;5059551;28;20359;-79
2023/04/17 01:31:23;;;;;;;102.88;37.78;;;;;;;;;;5076469;28;20358;-82
2023/04/17 01:33:49;;;;;;;113.57;42.25;;;;;;;;;;5092983;28;20024;-81
2023/04/17 01:36:14;;;;;;;120.43;41.25;;;;;;;;;;5092602;28;20097;-80
2023/04/17 01:38:40;;;;;;;121.25;41.90;;;;;;;;;;5092671;28;20028;-80
2023/04/17 01:41:08;;;;;;;126.78;42.97;;;;;;;;;;5061127;28;20034;-80
2023/04/17 01:43:38;;;;;;;135.18;43.80;;;;;;;;;;5097121;28;20438;-80
2023/04/17 01:46:03;;;;;;;130.55;41.53;;;;;;;;;;5080008;28;20055;-80
2023/04/17 01:48:29;;;;;;;115.50;39.72;;;;;;;;;;5096945;28;20028;-81
2023/04/17 01:50:54;;;;;;;120.93;40.45;;;;;;;;;;5079974;28;20031;-80
2023/04/17 01:53:20;;;;;;;115.90;40.17;;;;;;;;;;5097861;28;20035;-80
2023/04/17 01:55:46;;;;;;;115.53;41.35;;;;;;;;;;5096589;28;20031;-80
2023/04/17 01:58:11;;;;;;;104.97;39.60;;;;;;;;;;5096680;28;20028;-82
2023/04/17 02:00:36;;;;;;;117.68;38.35;;;;;;;;;;5079528;28;20047;-80
2023/04/17 02:03:02;;;;;;;123.38;39.75;;;;;;;;;;5093568;28;20030;-79
2023/04/17 02:05:27;;;;;;;109.63;39.60;;;;;;;;;;5096259;28;20043;-80
2023/04/17 02:07:53;;;;;;;134.50;42.63;;;;;;;;;;5097749;28;20031;-80
2023/04/17 02:10:18;;;;;;;134.13;41.75;;;;;;;;;;5097463;28;20031;-79
2023/04/17 02:12:43;;;;;;;126.78;42.22;;;;;;;;;;5097436;28;20035;-82
2023/04/17 02:15:09;;;;;;;159.70;45.72;;;;;;;;;;5078979;28;20028;-82
2023/04/17 02:17:35;;;;;;;132.18;42.67;;;;;;;;;;5096356;28;20028;-82
2023/04/17 02:20:00;;;;;;;157.75;45.65;;;;;;;;;;5096417;28;20028;-81
2023/04/17 02:22:26;;;;;;;157.25;43.58;;;;;;;;;;5062459;28;20028;-81
2023/04/17 02:24:51;;;;;;;144.55;44.45;;;;;;;;;;5095998;28;20039;-82
2023/04/17 02:27:16;;;;;;;146.13;45.58;;;;;;;;;;5079171;28;20028;-81
2023/04/17 02:29:42;;;;;;;135.70;43.53;;;;;;;;;;5079183;28;20082;-82
2023/04/17 02:32:07;;;;;;;140.02;45.70;;;;;;;;;;5095878;28;20032;-80
2023/04/17 02:34:33;;;;;;;152.63;43.95;;;;;;;;;;5095892;28;20369;-82
2023/04/17 02:36:58;;;;;;;124.15;42.83;;;;;;;;;;5079190;28;20088;-81
2023/04/17 02:39:24;;;;;;;148.02;42.72;;;;;;;;;;5096214;28;20411;-82
2023/04/17 02:41:49;;;;;;;136.68;42.50;;;;;;;;;;5062512;28;20032;-81
2023/04/17 02:44:15;;;;;;;124.45;41.13;;;;;;;;;;5078909;28;20031;-82
2023/04/17 02:46:40;;;;;;;144.55;44.65;;;;;;;;;;5095687;28;20123;-81
2023/04/17 02:49:05;;;;;;;165.95;47.03;;;;;;;;;;5062428;28;20202;-82
2023/04/17 02:51:31;;;;;;;155.70;43.63;;;;;;;;;;5062179;28;20189;-81
2023/04/17 02:53:56;;;;;;;145.18;45.97;;;;;;;;;;5095767;28;20429;-81
2023/04/17 02:56:22;;;;;;;172.57;46.42;;;;;;;;;;5078700;28;20440;-82
2023/04/17 02:58:47;;;;;;;159.90;46.83;;;;;;;;;;5095309;28;20461;-81
2023/04/17 03:01:12;;;;;;;172.35;52.58;;;;;;;;;;5095619;28;20123;-81
2023/04/17 03:03:40;;;;;;;144.95;48.17;;;;;;;;;;5075347;28;20097;-81
2023/04/17 03:06:07;;;;;;;162.98;49.00;;;;;;;;;;5078531;28;20154;-82
2023/04/17 03:08:34;;;;;;;166.02;49.15;;;;;;;;;;5078639;28;20123;-82
2023/04/17 03:11:02;;;;;;;163.88;48.13;;;;;;;;;;5078819;28;20115;-81
2023/04/17 03:13:27;;;;;;;156.82;47.17;;;;;;;;;;5078439;28;20040;-82
2023/04/17 03:15:52;;;;;;;162.10;47.63;;;;;;;;;;5061787;28;20450;-82
2023/04/17 03:18:18;;;;;;;153.23;48.08;;;;;;;;;;5094990;28;20483;-81
2023/04/17 03:20:43;;;;;;;151.10;48.63;;;;;;;;;;5078100;28;20394;-80
2023/04/17 03:23:09;;;;;;;158.45;47.60;;;;;;;;;;5095113;28;20123;-81
2023/04/17 03:25:34;;;;;;;159.85;47.55;;;;;;;;;;5095867;28;20130;-81
2023/04/17 03:28:00;;;;;;;146.98;48.25;;;;;;;;;;5094698;28;20034;-81
2023/04/17 03:30:26;;;;;;;172.70;52.78;;;;;;;;;;5094820;28;20369;-81
2023/04/17 03:32:52;;;;;;;158.13;49.20;;;;;;;;;;5094919;28;20035;-81
2023/04/17 03:35:17;;;;;;;144.85;45.58;;;;;;;;;;5094768;28;20028;-81
2023/04/17 03:37:43;;;;;;;154.05;47.78;;;;;;;;;;5078132;28;20031;-82
2023/04/17 03:40:08;;;;;;;140.25;47.95;;;;;;;;;;5077994;28;20028;-81
2023/04/17 03:42:34;;;;;;;142.65;43.85;;;;;;;;;;5094729;28;20024;-81
2023/04/17 03:45:02;;;;;;;138.25;46.08;;;;;;;;;;5094536;28;20032;-82
2023/04/17 03:47:28;;;;;;;149.15;45.60;;;;;;;;;;5094637;28;20035;-81
2023/04/17 03:49:54;;;;;;;132.55;45.95;;;;;;;;;;5094578;28;20107;-82
2023/04/17 03:52:19;;;;;;;135.65;45.72;;;;;;;;;;5094439;28;20433;-81
2023/04/17 03:54:45;;;;;;;119.03;41.92;;;;;;;;;;5077725;28;20540;-81
2023/04/17 03:57:10;;;;;;;128.88;42.90;;;;;;;;;;5094154;28;20408;-81
2023/04/17 03:59:36;;;;;;;119.53;43.70;;;;;;;;;;5077782;28;20031;-80
2023/04/17 04:02:02;;;;;;;123.90;43.83;;;;;;;;;;5078030;28;20388;-81
2023/04/17 04:04:27;;;;;;;129.57;45.67;;;;;;;;;;5076774;28;20068;-82
2023/04/17 04:06:56;;;;;;;134.98;45.45;;;;;;;;;;5077259;28;20031;-81
2023/04/17 04:09:21;;;;;;;136.07;45.05;;;;;;;;;;5090450;28;20421;-81
2023/04/17 04:11:47;;;;;;;131.02;45.22;;;;;;;;;;5094071;28;20044;-81
2023/04/17 04:14:12;;;;;;;135.45;45.50;;;;;;;;;;5093933;28;20369;-81
2023/04/17 04:16:38;;;;;;;131.10;44.95;;;;;;;;;;5093814;28;20028;-80
2023/04/17 04:19:03;;;;;;;109.90;36.97;;;;;;;;;;5094161;28;20035;-82
2023/04/17 04:21:29;;;;;;;137.20;46.92;;;;;;;;;;5076961;28;20024;-82
2023/04/17 04:23:55;;;;;;;129.25;45.55;;;;;;;;;;5076860;28;20024;-81
2023/04/17 04:26:23;;;;;;;102.57;39.67;;;;;;;;;;5094730;28;20028;-82
2023/04/17 04:28:48;;;;;;;119.72;42.88;;;;;;;;;;5093905;28;20036;-80
2023/04/17 04:31:17;;;;;;;119.00;44.53;;;;;;;;;;5093636;28;20028;-81
2023/04/17 04:33:43;;;;;;;101.35;38.90;;;;;;;;;;5095140;28;20020;-81
2023/04/17 04:36:12;;;;;;;110.28;40.25;;;;;;;;;;5093627;28;20369;-80
2023/04/17 04:38:40;;;;;;;114.03;39.72;;;;;;;;;;5093457;28;20039;-82
2023/04/17 04:41:09;;;;;;;116.75;42.15;;;;;;;;;;5077148;28;20038;-81
2023/04/17 04:43:35;;;;;;;107.72;38.97;;;;;;;;;;5093710;28;20058;-81
2023/04/17 04:46:00;;;;;;;116.63;43.42;;;;;;;;;;5060295;28;20127;-81
2023/04/17 04:48:26;;;;;;;119.47;41.28;;;;;;;;;;5093785;28;20112;-81
2023/04/17 04:50:51;;;;;;;134.50;46.13;;;;;;;;;;5094893;28;20028;-81
2023/04/17 04:53:17;;;;;;;120.90;44.22;;;;;;;;;;5076342;28;20452;-81
2023/04/17 04:55:43;;;;;;;127.82;45.65;;;;;;;;;;5093617;28;20067;-81
2023/04/17 04:58:08;;;;;;;123.57;41.65;;;;;;;;;;5094560;28;20088;-82
2023/04/17 05:00:34;;;;;;;116.68;40.42;;;;;;;;;;5093293;28;20092;-82
2023/04/17 05:02:59;;;;;;;127.32;42.45;;;;;;;;;;5093323;28;20468;-81
2023/04/17 05:05:25;;;;;;;125.85;40.85;;;;;;;;;;5059512;28;20483;-81
2023/04/17 05:07:53;;;;;;;125.15;42.53;;;;;;;;;;5059171;28;20062;-82
2023/04/17 05:10:19;;;;;;;121.28;42.13;;;;;;;;;;5073480;28;20043;-81
2023/04/17 05:12:44;;;;;;;115.20;41.17;;;;;;;;;;5075659;28;20032;-80
2023/04/17 05:15:10;;;;;;;128.23;40.55;;;;;;;;;;5092447;28;20066;-82
2023/04/17 05:17:36;;;;;;;132.70;43.03;;;;;;;;;;5076451;28;20089;-82
2023/04/17 05:20:05;;;;;;;129.65;42.58;;;;;;;;;;5093001;28;20110;-81
2023/04/17 05:22:31;;;;;;;121.17;39.97;;;;;;;;;;5093825;28;20067;-82
2023/04/17 05:24:56;;;;;;;120.15;40.72;;;;;;;;;;5076524;28;20399;-82
2023/04/17 05:27:22;;;;;;;126.43;39.45;;;;;;;;;;5076022;28;20543;-82
2023/04/17 05:29:47;;;;;;;129.50;41.60;;;;;;;;;;5075991;28;20126;-82
2023/04/17 05:32:13;;;;;;;135.27;40.67;;;;;;;;;;5075973;28;20020;-79
2023/04/17 05:34:38;;;;;;;162.80;41.40;;;;;;;;;;5076096;28;20035;-81
2023/04/17 05:37:04;;;;;;;139.02;39.10;;;;;;;;;;5092676;28;20031;-81
2023/04/17 05:39:29;;;;;;;131.27;41.03;;;;;;;;;;5093013;28;20418;-82
2023/04/17 05:41:55;;;;;;;142.45;41.00;;;;;;;;;;5059344;28;20059;-81
2023/04/17 05:44:20;;;;;;;114.40;39.63;;;;;;;;;;5092873;28;20114;-82
2023/04/17 05:46:46;;;;;;;128.02;40.70;;;;;;;;;;5076136;28;20342;-81
2023/04/17 05:49:11;;;;;;;138.82;38.60;;;;;;;;;;5092868;28;20028;-81
2023/04/17 05:51:36;;;;;;;117.25;35.22;;;;;;;;;;5092417;28;20024;-81
2023/04/17 05:54:13;;;;;;;107.80;34.85;;;;;;;;;;5076103;28;20047;-82
2023/04/17 05:56:39;;;;;;;114.35;36.50;;;;;;;;;;5076654;28;20043;-81
2023/04/17 05:59:04;;;;;;;124.95;36.92;;;;;;;;;;5092930;28;20028;-83
2023/04/17 06:01:30;;;;;;;124.20;39.85;;;;;;;;;;5075801;28;20028;-82
2023/04/17 06:03:55;;;;;;;115.07;37.65;;;;;;;;;;5058875;28;20040;-82
2023/04/17 06:06:21;;;;;;;114.00;36.95;;;;;;;;;;5058877;28;20054;-83
2023/04/17 06:08:46;;;;;;;126.00;36.97;;;;;;;;;;5075802;28;20358;-82
2023/04/17 06:11:12;;;;;;;111.05;37.58;;;;;;;;;;5059219;28;20353;-82
2023/04/17 06:13:37;;;;;;;107.07;37.05;;;;;;;;;;5092676;28;20039;-80
2023/04/17 06:16:03;;;;;;;113.43;36.70;;;;;;;;;;5092414;28;20032;-81
2023/04/17 06:18:28;;;;;;;124.90;37.83;;;;;;;;;;5092422;28;20032;-80
2023/04/17 06:20:54;;;;;;;107.45;34.47;;;;;;;;;;5092355;28;20060;-80
2023/04/17 06:23:20;;;;;;;104.95;34.90;;;;;;;;;;5075386;28;20051;-82
2023/04/17 06:25:45;;;;;;;119.72;36.20;;;;;;;;;;5075836;28;20044;-82
2023/04/17 06:28:11;;;;;;;124.97;38.83;;;;;;;;;;5095747;28;20028;-82
2023/04/17 06:30:36;;;;;;;104.22;35.80;;;;;;;;;;5079237;28;20028;-82
2023/04/17 06:33:02;;;;;;;121.43;36.55;;;;;;;;;;5079288;28;20028;-81
2023/04/17 06:35:27;;;;;;;106.25;34.92;;;;;;;;;;5079189;28;20393;-82
2023/04/17 06:37:53;;;;;;;108.70;36.60;;;;;;;;;;5079076;28;20028;-83
2023/04/17 06:40:19;;;;;;;93.35;34.63;;;;;;;;;;5075059;28;20051;-82
2023/04/17 06:42:44;;;;;;;106.57;35.47;;;;;;;;;;5075482;28;20033;-81
2023/04/17 06:45:10;;;;;;;98.15;36.20;;;;;;;;;;5076675;28;20032;-83
2023/04/17 06:47:36;;;;;;;113.20;35.85;;;;;;;;;;5059100;28;20031;-81
2023/04/17 06:50:01;;;;;;;104.68;33.70;;;;;;;;;;5058500;28;20028;-82
2023/04/17 06:52:26;;;;;;;109.22;34.25;;;;;;;;;;5058783;28;20441;-82
2023/04/17 06:54:55;;;;;;;99.70;33.72;;;;;;;;;;5076942;28;20036;-81
2023/04/17 06:57:21;;;;;;;103.05;36.78;;;;;;;;;;5058681;28;20021;-82
2023/04/17 06:59:46;;;;;;;100.90;36.50;;;;;;;;;;5058829;28;20040;-81
2023/04/17 07:02:12;;;;;;;93.03;32.83;;;;;;;;;;5075016;28;20412;-81
2023/04/17 07:04:37;;;;;;;92.70;31.60;;;;;;;;;;5058214;28;20048;-82
2023/04/17 07:07:03;;;;;;;95.75;31.98;;;;;;;;;;5075340;28;20351;-82
2023/04/17 07:09:28;;;;;;;102.97;34.95;;;;;;;;;;5075222;28;20472;-81
2023/04/17 07:11:54;;;;;;;97.88;33.15;;;;;;;;;;5076197;28;20115;-83
2023/04/17 07:14:19;;;;;;;111.32;36.22;;;;;;;;;;5075124;28;20016;-83
2023/04/17 07:16:44;;;;;;;88.30;30.60;;;;;;;;;;5074909;28;20085;-82
2023/04/17 07:19:10;;;;;;;104.05;34.13;;;;;;;;;;5074562;28;20016;-83
2023/04/17 07:21:36;;;;;;;103.82;34.92;;;;;;;;;;5074871;28;20386;-82
2023/04/17 07:24:01;;;;;;;95.40;30.65;;;;;;;;;;5074951;28;20020;-81
2023/04/17 07:26:26;;;;;;;99.95;36.10;;;;;;;;;;5041306;28;20036;-81
2023/04/17 07:28:52;;;;;;;104.88;34.50;;;;;;;;;;5058464;28;20020;-82
2023/04/17 07:31:17;;;;;;;112.45;36.70;;;;;;;;;;5058480;28;20024;-82
2023/04/17 07:33:43;;;;;;;97.35;31.77;;;;;;;;;;5057621;28;20029;-82
2023/04/17 07:36:10;;;;;;;103.93;34.13;;;;;;;;;;5058279;28;20036;-82
2023/04/17 07:38:35;;;;;;;113.90;36.60;;;;;;;;;;5040762;28;20032;-83
2023/04/17 07:41:01;;;;;;;89.43;33.83;;;;;;;;;;5041490;28;20054;-82
2023/04/17 07:43:27;;;;;;;106.93;36.50;;;;;;;;;;5084212;28;20028;-83
2023/04/17 07:45:53;;;;;;;105.82;36.15;;;;;;;;;;5078251;28;20035;-82
2023/04/17 07:48:21;;;;;;;101.28;37.17;;;;;;;;;;5060885;28;20024;-83
2023/04/17 07:50:46;;;;;;;96.78;32.75;;;;;;;;;;5061405;28;20020;-82
2023/04/17 07:53:11;;;;;;;83.15;31.48;;;;;;;;;;5060350;28;20472;-80
2023/04/17 07:55:37;;;;;;;115.57;39.28;;;;;;;;;;5094687;28;20418;-83
2023/04/17 07:58:02;;;;;;;89.97;34.55;;;;;;;;;;5077343;28;20373;-83
2023/04/17 08:00:32;;;;;;;107.00;37.28;;;;;;;;;;5077514;28;20456;-81
2023/04/17 08:02:57;;;;;;;99.43;34.03;;;;;;;;;;5095127;28;20077;-82
2023/04/17 08:05:23;;;;;;;100.30;35.78;;;;;;;;;;5060454;28;20036;-82
2023/04/17 08:07:49;;;;;;;95.55;34.22;;;;;;;;;;5077402;28;20026;-80
2023/04/17 08:10:14;;;;;;;111.75;38.25;;;;;;;;;;5077208;28;20020;-81
2023/04/17 08:12:40;;;;;;;111.65;38.55;;;;;;;;;;5093856;28;20047;-80
2023/04/17 08:15:06;;;;;;;112.75;37.90;;;;;;;;;;5093949;28;20433;-80
2023/04/17 08:17:32;;;;;;;103.15;36.67;;;;;;;;;;5076891;28;20094;-80
2023/04/17 08:19:57;;;;;;;109.35;34.83;;;;;;;;;;5077158;28;20163;-82
2023/04/17 08:22:24;;;;;;;117.60;38.10;;;;;;;;;;5077010;28;20085;-81
2023/04/17 08:24:53;;;;;;;107.60;36.33;;;;;;;;;;5060416;28;20392;-81
2023/04/17 08:27:23;;;;;;;108.75;37.33;;;;;;;;;;5061529;28;20122;-81
2023/04/17 08:29:48;;;;;;;106.32;38.22;;;;;;;;;;5077073;28;20110;-80
2023/04/17 08:32:15;;;;;;;112.70;36.10;;;;;;;;;;5093504;28;20119;-81
2023/04/17 08:34:41;;;;;;;112.15;36.65;;;;;;;;;;5077436;28;20055;-81
2023/04/17 08:37:06;;;;;;;118.70;38.25;;;;;;;;;;5076798;28;20020;-80
2023/04/17 08:39:32;;;;;;;104.03;35.88;;;;;;;;;;5060237;28;20024;-80
2023/04/17 08:42:01;;;;;;;123.85;37.33;;;;;;;;;;5077164;28;20024;-81
2023/04/17 08:44:27;;;;;;;107.73;35.50;;;;;;;;;;5074869;28;20055;-82
2023/04/17 08:46:54;;;;;;;126.18;38.97;;;;;;;;;;5076567;28;20329;-81
2023/04/17 08:49:20;;;;;;;112.45;38.67;;;;;;;;;;5060201;28;20461;-81
2023/04/17 08:51:46;;;;;;;124.47;39.33;;;;;;;;;;5093381;28;20036;-81
2023/04/17 08:54:11;;;;;;;119.50;36.88;;;;;;;;;;5076337;28;20028;-81
2023/04/17 08:56:36;;;;;;;132.43;48.58;;;;;;;;;;5094438;28;20047;-81
2023/04/17 08:59:03;;;;;;;95.72;34.58;;;;;;;;;;5076197;28;20092;-81
2023/04/17 09:01:28;;;;;;;90.15;31.90;;;;;;;;;;5076495;28;20148;-82
2023/04/17 09:03:55;;;;;;;70.85;27.05;;;;;;;;;;5093293;28;20468;-82
2023/04/17 09:06:21;;;;;;;77.82;28.95;;;;;;;;;;5092995;28;20059;-81
2023/04/17 09:08:55;;;;;;;82.68;30.10;;;;;;;;;;5059901;28;20438;-83
2023/04/17 09:11:21;;;;;;;79.28;30.85;;;;;;;;;;5076459;28;20077;-82
2023/04/17 09:13:46;;;;;;;99.97;35.80;;;;;;;;;;5076274;28;20111;-84
2023/04/17 09:16:12;;;;;;;93.43;34.25;;;;;;;;;;5076064;28;20039;-83
2023/04/17 09:18:38;;;;;;;90.90;31.88;;;;;;;;;;5076467;28;20032;-82
2023/04/17 09:21:05;;;;;;;91.00;33.17;;;;;;;;;;5075679;28;20139;-83
2023/04/17 09:23:44;;;;;;;87.15;33.17;;;;;;;;;;5076373;28;20031;-83
2023/04/17 09:26:11;;;;;;;93.13;35.58;;;;;;;;;;5076283;28;20040;-82
2023/04/17 09:28:40;;;;;;;93.88;35.33;;;;;;;;;;5092710;28;20024;-82
2023/04/17 09:31:22;;;;;;;94.47;32.22;;;;;;;;;;5093057;28;20357;-82
2023/04/17 09:34:03;;;;;;;93.32;31.35;;;;;;;;;;5078552;28;20067;-81
2023/04/17 09:36:30;;;;;;;95.65;35.08;;;;;;;;;;5077529;28;20047;-81
2023/04/17 09:39:00;;;;;;;88.63;30.08;;;;;;;;;;5094574;28;20031;-81
2023/04/17 09:41:30;;;;;;;90.38;27.23;;;;;;;;;;5093264;28;20047;-82
2023/04/17 09:43:59;;;;;;;;;;;;;;;;;;5093772;28;20033;-81
2023/04/17 09:46:38;;;;;;;83.68;27.38;;;;;;;;;;5079785;28;19916;-81
2023/04/17 09:49:09;;;;;;;90.20;29.33;;;;;;;;;;5082260;28;20040;-79
2023/04/17 09:51:35;;;;;;;82.05;29.73;;;;;;;;;;5116530;28;20031;-80
2023/04/17 09:54:04;;;;;;;78.15;27.45;;;;;;;;;;5099299;28;20028;-81
2023/04/17 09:56:32;;;;;;;83.00;29.30;;;;;;;;;;5064446;28;20040;-82
2023/04/17 09:58:59;;;;;;;100.85;32.13;;;;;;;;;;5093202;28;20394;-81
2023/04/17 10:01:33;;;;;;;90.05;30.48;;;;;;;;;;5079782;28;20024;-81
2023/04/17 10:04:00;;;;;;;92.35;29.85;;;;;;;;;;5098973;28;20488;-80
2023/04/17 10:06:26;;;;;;;82.20;26.90;;;;;;;;;;5081322;28;20043;-81
2023/04/17 10:08:51;;;;;;;77.05;26.05;;;;;;;;;;5081400;28;20368;-81
2023/04/17 10:11:17;;;;;;;76.82;27.90;;;;;;;;;;5080627;28;20035;-82
2023/04/17 10:13:44;;;;;;;70.15;26.08;;;;;;;;;;5097459;28;20032;-81
2023/04/17 10:16:10;;;;;;;74.65;26.25;;;;;;;;;;5079473;28;20028;-81
2023/04/17 10:18:35;;;;;;;68.63;25.67;;;;;;;;;;5080015;28;20372;-82
2023/04/17 10:21:24;;;;;;;75.28;26.83;;;;;;;;;;5079641;28;20027;-82
2023/04/17 10:23:49;;;;;;;76.32;26.52;;;;;;;;;;5064000;28;20365;-82
2023/04/17 10:26:24;;;;;;;64.18;26.23;;;;;;;;;;5079790;28;20047;-82
2023/04/17 10:28:50;;;;;;;64.88;24.55;;;;;;;;;;5097246;28;20048;-82
2023/04/17 10:31:16;;;;;;;67.95;25.05;;;;;;;;;;5063184;28;20430;-82
2023/04/17 10:33:48;;;;;;;73.55;26.42;;;;;;;;;;5079628;28;20028;-82
2023/04/17 10:36:39;;;;;;;70.68;26.33;;;;;;;;;;5062851;28;20020;-83
2023/04/17 10:39:11;;;;;;;;;;;;;;;;;;5096712;28;20485;-83
2023/04/17 10:42:03;;;;;;;76.15;25.98;;;;;;;;;;5095930;28;19965;-82
2023/04/17 10:44:33;;;;;;;62.22;25.77;;;;;;;;;;5096076;28;20035;-82
2023/04/17 10:47:03;;;;;;;63.05;25.35;;;;;;;;;;5062545;28;20032;-83
2023/04/17 10:49:48;;;;;;;71.35;24.08;;;;;;;;;;5076282;28;20101;-82
2023/04/17 10:52:32;;;;;;;64.32;25.50;;;;;;;;;;5079132;28;20036;-82
2023/04/17 10:55:04;;;;;;;59.63;23.55;;;;;;;;;;5095887;28;20032;-83
2023/04/17 10:57:54;;;;;;;69.13;24.52;;;;;;;;;;5095822;28;20031;-83
2023/04/17 11:00:50;;;;;;;56.90;23.42;;;;;;;;;;5095917;28;20667;-84
2023/04/17 11:03:16;;;;;;;56.03;22.10;;;;;;;;;;5091803;28;20047;-84
2023/04/17 11:05:45;;;;;;;59.35;24.52;;;;;;;;;;5061857;28;20048;-82
2023/04/17 11:08:11;;;;;;;63.03;26.13;;;;;;;;;;5062240;28;20023;-83
2023/04/17 11:10:37;;;;;;;59.25;25.10;;;;;;;;;;5078172;28;20282;-83
2023/04/17 11:13:03;;;;;;;76.13;28.38;;;;;;;;;;5078570;28;20452;-83
2023/04/17 11:15:29;;;;;;;63.45;27.08;;;;;;;;;;5078461;28;20028;-83
2023/04/17 11:17:55;;;;;;;64.90;28.20;;;;;;;;;;5095144;28;20028;-83
2023/04/17 11:20:22;;;;;;;54.78;23.10;;;;;;;;;;5062077;28;20024;-83
2023/04/17 11:22:47;;;;;;;52.33;22.10;;;;;;;;;;5078492;28;20119;-83
2023/04/17 11:25:26;;;;;;;50.85;23.35;;;;;;;;;;5078021;28;20495;-83
2023/04/17 11:27:56;;;;;;;63.00;23.58;;;;;;;;;;5078234;28;20024;-83
2023/04/17 11:30:28;;;;;;;57.25;22.17;;;;;;;;;;5095155;28;20020;-81
2023/04/17 11:32:53;;;;;;;49.10;21.15;;;;;;;;;;5096360;28;20024;-84
2023/04/17 11:35:26;;;;;;;48.45;20.55;;;;;;;;;;5095007;28;20035;-83
2023/04/17 11:38:07;;;;;;;43.38;19.88;;;;;;;;;;5094875;28;20028;-84
2023/04/17 11:40:33;;;;;;;54.08;21.92;;;;;;;;;;5078012;28;20104;-82
2023/04/17 11:43:06;;;;;;;55.67;21.85;;;;;;;;;;5094783;28;20066;-82
2023/04/17 11:45:33;;;;;;;42.58;20.02;;;;;;;;;;5061881;28;20434;-82
2023/04/17 11:47:58;;;;;;;44.38;20.85;;;;;;;;;;5061673;28;20028;-82
2023/04/17 11:50:28;;;;;;;44.05;19.65;;;;;;;;;;5071248;28;20031;-82
2023/04/17 11:53:00;;;;;;;44.83;18.27;;;;;;;;;;5057820;28;20039;-82
2023/04/17 11:55:30;;;;;;;42.83;18.45;;;;;;;;;;5074042;28;20454;-83
2023/04/17 11:58:05;;;;;;;41.63;19.40;;;;;;;;;;5074670;28;20541;-83
2023/04/17 12:00:31;;;;;;;34.45;17.50;;;;;;;;;;5058892;28;20072;-82
2023/04/17 12:02:57;;;;;;;37.20;17.38;;;;;;;;;;5074171;28;20121;-83
2023/04/17 12:05:23;;;;;;;39.63;18.20;;;;;;;;;;5073820;28;20151;-83
2023/04/17 12:08:18;;;;;;;43.45;18.40;;;;;;;;;;5057332;28;20503;-83
2023/04/17 12:10:43;;;;;;;37.65;18.05;;;;;;;;;;5057423;28;20591;-83
2023/04/17 12:13:09;;;;;;;37.55;17.35;;;;;;;;;;5075061;28;20108;-83
2023/04/17 12:15:36;;;;;;;37.83;17.60;;;;;;;;;;5073867;28;20028;-83
2023/04/17 12:18:04;;;;;;;39.63;18.02;;;;;;;;;;5073698;28;20034;-82
2023/04/17 12:20:39;;;;;;;37.35;15.88;;;;;;;;;;5090210;28;20074;-84
2023/04/17 12:23:05;;;;;;;43.50;18.45;;;;;;;;;;5090437;28;20032;-84
2023/04/17 12:25:31;;;;;;;31.70;15.50;;;;;;;;;;5073141;28;20031;-81
2023/04/17 12:27:58;;;;;;;40.40;18.50;;;;;;;;;;5057344;28;20052;-81
2023/04/17 12:30:26;;;;;;;39.63;17.48;;;;;;;;;;5057418;28;20025;-84
2023/04/17 12:32:52;;;;;;;37.20;16.98;;;;;;;;;;5057397;28;20028;-84
2023/04/17 12:35:18;;;;;;;41.70;18.08;;;;;;;;;;5073691;28;20033;-82
2023/04/17 12:37:47;;;;;;;37.10;17.40;;;;;;;;;;5040173;28;20373;-83
2023/04/17 12:40:21;;;;;;;42.42;19.13;;;;;;;;;;5057412;28;20362;-83
2023/04/17 12:42:47;;;;;;;37.50;17.10;;;;;;;;;;5073431;28;20016;-82
2023/04/17 12:45:14;;;;;;;39.13;16.65;;;;;;;;;;5056821;28;20066;-82
2023/04/17 12:47:39;;;;;;;42.30;17.58;;;;;;;;;;5073894;28;20075;-84
2023/04/17 12:50:05;;;;;;;43.70;18.15;;;;;;;;;;5056622;28;20028;-83
2023/04/17 12:52:31;;;;;;;41.63;17.27;;;;;;;;;;5072869;28;20032;-84
2023/04/17 12:54:58;;;;;;;41.13;17.98;;;;;;;;;;5093367;28;20023;-83
2023/04/17 12:57:25;;;;;;;37.38;17.88;;;;;;;;;;5060506;28;20032;-84
2023/04/17 12:59:51;;;;;;;39.65;17.25;;;;;;;;;;5094536;28;20514;-84
2023/04/17 13:02:19;;;;;;;31.67;16.02;;;;;;;;;;5064236;28;20032;-84
2023/04/17 13:04:46;;;;;;;34.33;16.15;;;;;;;;;;5056690;28;20041;-83
2023/04/17 13:07:12;;;;;;;41.42;15.85;;;;;;;;;;5040131;28;20033;-83
2023/04/17 13:09:37;;;;;;;38.88;16.05;;;;;;;;;;5056173;28;20533;-84
2023/04/17 13:12:03;;;;;;;32.85;15.18;;;;;;;;;;5039781;28;20127;-83
2023/04/17 13:14:29;;;;;;;36.53;15.07;;;;;;;;;;5072949;28;20032;-83
2023/04/17 13:16:55;;;;;;;29.75;15.07;;;;;;;;;;5039831;28;20413;-84
2023/04/17 13:19:20;;;;;;;28.30;15.07;;;;;;;;;;5056351;28;20056;-83
2023/04/17 13:21:46;;;;;;;32.75;15.13;;;;;;;;;;5055804;28;20489;-84
2023/04/17 13:24:13;;;;;;;36.10;14.75;;;;;;;;;;5056456;28;20028;-85
2023/04/17 13:26:42;;;;;;;30.05;14.80;;;;;;;;;;5040356;28;20535;-83
2023/04/17 13:29:07;;;;;;;33.67;15.55;;;;;;;;;;5039454;28;20032;-84
2023/04/17 13:31:33;;;;;;;38.30;15.23;;;;;;;;;;5055761;28;20029;-83
2023/04/17 13:33:59;;;;;;;29.45;13.38;;;;;;;;;;5039779;28;20031;-83
2023/04/17 13:36:24;;;;;;;36.65;15.25;;;;;;;;;;5073008;28;20798;-84
2023/04/17 13:38:50;;;;;;;35.53;16.25;;;;;;;;;;5060266;28;20051;-85
2023/04/17 13:41:15;;;;;;;35.55;16.33;;;;;;;;;;5060186;28;20032;-84
2023/04/17 13:43:41;;;;;;;33.15;15.52;;;;;;;;;;5060298;28;20054;-84
2023/04/17 13:46:08;;;;;;;36.60;16.02;;;;;;;;;;5076658;28;20047;-84
2023/04/17 13:48:34;;;;;;;37.00;16.98;;;;;;;;;;5043916;28;20123;-84
2023/04/17 13:50:59;;;;;;;40.88;17.20;;;;;;;;;;5076731;28;20451;-83
2023/04/17 13:53:25;;;;;;;48.83;20.02;;;;;;;;;;5059145;28;20024;-81
2023/04/17 13:55:50;;;;;;;46.00;21.65;;;;;;;;;;5074964;28;20024;-81
2023/04/17 13:58:16;;;;;;;57.17;23.50;;;;;;;;;;5077352;28;20382;-80
2023/04/17 14:00:41;;;;;;;52.42;22.15;;;;;;;;;;5077681;28;20064;-79
2023/04/17 14:03:07;;;;;;;51.97;22.90;;;;;;;;;;5078093;28;20025;-80
2023/04/17 14:05:32;;;;;;;57.92;23.00;;;;;;;;;;5075670;28;20043;-80
2023/04/17 14:07:57;;;;;;;56.67;23.83;;;;;;;;;;5077164;28;20434;-80
2023/04/17 14:10:23;;;;;;;57.00;24.88;;;;;;;;;;5059332;28;20027;-79